sensor_id;sensor_type;location;lat;lon;timestamp;P1;durP1;ratioP1;P2;durP2;ratioP2
18021;SDS011;9136;48.822;7.966;2023-02-12T00:02:13;22.13;;;21.13;;
18021;SDS011;9136;48.822;7.966;2023-02-12T00:05:00;19.00;;;18.10;;
18021;SDS011;9136;48.822;7.966;2023-02-12T00:07:48;20.87;;;19.87;;
18021;SDS011;9136;48.822;7.966;2023-02-12T00:10:38;19.33;;;18.33;;
18021;SDS011;9136;48.822;7.966;2023-02-12T00:13:31;21.83;;;20.83;;
18021;SDS011;9136;48.822;7.966;2023-02-12T00:16:20;21.97;;;20.83;;
18021;SDS011;9136;48.822;7.966;2023-02-12T00:19:09;21.03;;;19.90;;
18021;SDS011;9136;48.822;7.966;2023-02-12T00:21:57;19.37;;;18.27;;
18021;SDS011;9136;48.822;7.966;2023-02-12T00:24:45;19.30;;;18.40;;
18021;SDS011;9136;48.822;7.966;2023-02-12T00:27:33;19.73;;;18.73;;
18021;SDS011;9136;48.822;7.966;2023-02-12T00:30:23;21.10;;;20.00;;
18021;SDS011;9136;48.822;7.966;2023-02-12T00:33:11;21.80;;;20.60;;
18021;SDS011;9136;48.822;7.966;2023-02-12T00:35:59;19.57;;;18.60;;
18021;SDS011;9136;48.822;7.966;2023-02-12T00:38:47;21.37;;;20.27;;
18021;SDS011;9136;48.822;7.966;2023-02-12T00:41:35;18.67;;;17.80;;
18021;SDS011;9136;48.822;7.966;2023-02-12T00:44:23;17.23;;;16.43;;
18021;SDS011;9136;48.822;7.966;2023-02-12T00:47:12;19.27;;;18.17;;
18021;SDS011;9136;48.822;7.966;2023-02-12T00:50:02;22.57;;;21.43;;
18021;SDS011;9136;48.822;7.966;2023-02-12T00:52:50;20.20;;;19.20;;
18021;SDS011;9136;48.822;7.966;2023-02-12T00:55:38;22.37;;;20.73;;
18021;SDS011;9136;48.822;7.966;2023-02-12T00:58:26;37.20;;;22.03;;
18021;SDS011;9136;48.822;7.966;2023-02-12T01:01:15;21.97;;;20.60;;
18021;SDS011;9136;48.822;7.966;2023-02-12T01:04:05;20.63;;;19.63;;
18021;SDS011;9136;48.822;7.966;2023-02-12T01:06:53;21.73;;;20.73;;
18021;SDS011;9136;48.822;7.966;2023-02-12T01:09:41;19.23;;;18.33;;
18021;SDS011;9136;48.822;7.966;2023-02-12T01:12:29;23.03;;;21.80;;
18021;SDS011;9136;48.822;7.966;2023-02-12T01:15:17;21.20;;;20.10;;
18021;SDS011;9136;48.822;7.966;2023-02-12T01:18:06;21.07;;;19.97;;
18021;SDS011;9136;48.822;7.966;2023-02-12T01:20:55;20.40;;;19.27;;
18021;SDS011;9136;48.822;7.966;2023-02-12T01:23:44;20.40;;;19.07;;
18021;SDS011;9136;48.822;7.966;2023-02-12T01:26:33;20.30;;;19.23;;
18021;SDS011;9136;48.822;7.966;2023-02-12T01:29:21;19.70;;;18.80;;
18021;SDS011;9136;48.822;7.966;2023-02-12T01:32:09;18.97;;;17.63;;
18021;SDS011;9136;48.822;7.966;2023-02-12T01:34:57;22.30;;;21.30;;
18021;SDS011;9136;48.822;7.966;2023-02-12T01:37:46;20.00;;;19.10;;
18021;SDS011;9136;48.822;7.966;2023-02-12T01:40:34;20.13;;;19.03;;
18021;SDS011;9136;48.822;7.966;2023-02-12T01:43:23;20.67;;;19.07;;
18021;SDS011;9136;48.822;7.966;2023-02-12T01:46:12;24.37;;;22.87;;
18021;SDS011;9136;48.822;7.966;2023-02-12T01:49:00;21.53;;;20.17;;
18021;SDS011;9136;48.822;7.966;2023-02-12T01:51:52;21.13;;;19.97;;
18021;SDS011;9136;48.822;7.966;2023-02-12T01:54:43;22.87;;;21.57;;
18021;SDS011;9136;48.822;7.966;2023-02-12T01:57:33;21.00;;;20.00;;
18021;SDS011;9136;48.822;7.966;2023-02-12T02:00:24;21.63;;;20.57;;
18021;SDS011;9136;48.822;7.966;2023-02-12T02:03:13;22.60;;;21.50;;
18021;SDS011;9136;48.822;7.966;2023-02-12T02:06:02;18.67;;;17.80;;
18021;SDS011;9136;48.822;7.966;2023-02-12T02:08:56;20.70;;;19.60;;
18021;SDS011;9136;48.822;7.966;2023-02-12T02:11:45;20.77;;;19.83;;
18021;SDS011;9136;48.822;7.966;2023-02-12T02:14:51;21.33;;;20.27;;
18021;SDS011;9136;48.822;7.966;2023-02-12T02:17:45;19.67;;;18.67;;
18021;SDS011;9136;48.822;7.966;2023-02-12T02:20:47;19.00;;;18.10;;
18021;SDS011;9136;48.822;7.966;2023-02-12T02:23:59;20.93;;;19.93;;
18021;SDS011;9136;48.822;7.966;2023-02-12T02:27:06;21.87;;;20.77;;
18021;SDS011;9136;48.822;7.966;2023-02-12T02:30:13;19.40;;;18.30;;
18021;SDS011;9136;48.822;7.966;2023-02-12T02:33:21;19.13;;;18.20;;
18021;SDS011;9136;48.822;7.966;2023-02-12T02:36:21;21.97;;;20.97;;
18021;SDS011;9136;48.822;7.966;2023-02-12T02:39:14;20.73;;;19.43;;
18021;SDS011;9136;48.822;7.966;2023-02-12T02:42:10;17.63;;;16.73;;
18021;SDS011;9136;48.822;7.966;2023-02-12T02:45:05;22.37;;;21.23;;
18021;SDS011;9136;48.822;7.966;2023-02-12T02:48:00;19.97;;;19.07;;
18021;SDS011;9136;48.822;7.966;2023-02-12T02:50:54;21.33;;;20.27;;
18021;SDS011;9136;48.822;7.966;2023-02-12T02:53:46;21.03;;;20.00;;
18021;SDS011;9136;48.822;7.966;2023-02-12T02:56:38;21.17;;;20.07;;
18021;SDS011;9136;48.822;7.966;2023-02-12T02:59:31;20.17;;;18.83;;
18021;SDS011;9136;48.822;7.966;2023-02-12T03:02:24;22.27;;;20.97;;
18021;SDS011;9136;48.822;7.966;2023-02-12T03:05:18;20.73;;;19.83;;
18021;SDS011;9136;48.822;7.966;2023-02-12T03:08:11;23.00;;;21.80;;
18021;SDS011;9136;48.822;7.966;2023-02-12T03:11:04;19.47;;;18.53;;
18021;SDS011;9136;48.822;7.966;2023-02-12T03:13:58;21.07;;;19.90;;
18021;SDS011;9136;48.822;7.966;2023-02-12T03:16:53;23.63;;;22.23;;
18021;SDS011;9136;48.822;7.966;2023-02-12T03:19:45;21.30;;;20.20;;
18021;SDS011;9136;48.822;7.966;2023-02-12T03:22:41;22.80;;;21.47;;
18021;SDS011;9136;48.822;7.966;2023-02-12T03:25:34;22.67;;;21.23;;
18021;SDS011;9136;48.822;7.966;2023-02-12T03:28:27;20.20;;;19.07;;
18021;SDS011;9136;48.822;7.966;2023-02-12T03:31:19;18.77;;;17.87;;
18021;SDS011;9136;48.822;7.966;2023-02-12T03:34:19;22.57;;;21.50;;
18021;SDS011;9136;48.822;7.966;2023-02-12T03:37:13;32.10;;;22.63;;
18021;SDS011;9136;48.822;7.966;2023-02-12T03:40:12;20.47;;;19.47;;
18021;SDS011;9136;48.822;7.966;2023-02-12T03:43:05;18.93;;;18.03;;
18021;SDS011;9136;48.822;7.966;2023-02-12T03:45:59;18.50;;;17.57;;
18021;SDS011;9136;48.822;7.966;2023-02-12T03:48:57;20.50;;;19.60;;
18021;SDS011;9136;48.822;7.966;2023-02-12T03:51:48;20.73;;;19.73;;
18021;SDS011;9136;48.822;7.966;2023-02-12T03:54:36;21.13;;;20.13;;
18021;SDS011;9136;48.822;7.966;2023-02-12T03:57:28;22.40;;;21.20;;
18021;SDS011;9136;48.822;7.966;2023-02-12T04:03:09;21.83;;;20.73;;
18021;SDS011;9136;48.822;7.966;2023-02-12T04:05:58;24.27;;;22.77;;
18021;SDS011;9136;48.822;7.966;2023-02-12T04:08:46;23.50;;;22.30;;
18021;SDS011;9136;48.822;7.966;2023-02-12T04:11:35;23.20;;;21.77;;
18021;SDS011;9136;48.822;7.966;2023-02-12T04:14:37;21.97;;;20.93;;
18021;SDS011;9136;48.822;7.966;2023-02-12T04:17:45;23.07;;;21.97;;
18021;SDS011;9136;48.822;7.966;2023-02-12T04:20:42;21.73;;;20.63;;
18021;SDS011;9136;48.822;7.966;2023-02-12T04:23:43;22.77;;;21.63;;
18021;SDS011;9136;48.822;7.966;2023-02-12T04:26:35;20.60;;;19.50;;
18021;SDS011;9136;48.822;7.966;2023-02-12T04:29:29;21.67;;;20.53;;
18021;SDS011;9136;48.822;7.966;2023-02-12T04:32:26;21.23;;;20.13;;
18021;SDS011;9136;48.822;7.966;2023-02-12T04:35:19;23.80;;;22.60;;
18021;SDS011;9136;48.822;7.966;2023-02-12T04:38:10;22.67;;;21.40;;
18021;SDS011;9136;48.822;7.966;2023-02-12T04:41:04;19.23;;;18.37;;
18021;SDS011;9136;48.822;7.966;2023-02-12T04:43:53;20.43;;;19.53;;
18021;SDS011;9136;48.822;7.966;2023-02-12T04:46:42;21.53;;;20.43;;
18021;SDS011;9136;48.822;7.966;2023-02-12T04:49:31;23.70;;;22.07;;
18021;SDS011;9136;48.822;7.966;2023-02-12T04:52:19;21.93;;;20.47;;
18021;SDS011;9136;48.822;7.966;2023-02-12T04:55:07;19.67;;;18.77;;
18021;SDS011;9136;48.822;7.966;2023-02-12T04:57:55;23.67;;;22.57;;
18021;SDS011;9136;48.822;7.966;2023-02-12T05:00:43;22.37;;;21.17;;
18021;SDS011;9136;48.822;7.966;2023-02-12T05:03:31;23.60;;;22.17;;
18021;SDS011;9136;48.822;7.966;2023-02-12T05:06:20;20.43;;;19.43;;
18021;SDS011;9136;48.822;7.966;2023-02-12T05:09:09;24.93;;;23.63;;
18021;SDS011;9136;48.822;7.966;2023-02-12T05:11:59;22.97;;;21.73;;
18021;SDS011;9136;48.822;7.966;2023-02-12T05:14:47;23.73;;;22.43;;
18021;SDS011;9136;48.822;7.966;2023-02-12T05:17:35;21.30;;;20.30;;
18021;SDS011;9136;48.822;7.966;2023-02-12T05:20:23;22.83;;;21.73;;
18021;SDS011;9136;48.822;7.966;2023-02-12T05:23:13;20.83;;;19.37;;
18021;SDS011;9136;48.822;7.966;2023-02-12T05:26:01;22.90;;;21.37;;
18021;SDS011;9136;48.822;7.966;2023-02-12T05:28:51;19.77;;;18.87;;
18021;SDS011;9136;48.822;7.966;2023-02-12T05:31:40;21.50;;;20.27;;
18021;SDS011;9136;48.822;7.966;2023-02-12T05:34:28;19.50;;;18.60;;
18021;SDS011;9136;48.822;7.966;2023-02-12T05:37:17;22.13;;;21.10;;
18021;SDS011;9136;48.822;7.966;2023-02-12T05:40:07;21.57;;;20.10;;
18021;SDS011;9136;48.822;7.966;2023-02-12T05:42:55;20.70;;;19.40;;
18021;SDS011;9136;48.822;7.966;2023-02-12T05:45:43;20.90;;;19.93;;
18021;SDS011;9136;48.822;7.966;2023-02-12T05:48:31;20.90;;;19.83;;
18021;SDS011;9136;48.822;7.966;2023-02-12T05:51:23;23.93;;;22.70;;
18021;SDS011;9136;48.822;7.966;2023-02-12T05:54:13;25.27;;;23.87;;
18021;SDS011;9136;48.822;7.966;2023-02-12T05:57:02;21.23;;;20.30;;
18021;SDS011;9136;48.822;7.966;2023-02-12T05:59:50;20.10;;;18.93;;
18021;SDS011;9136;48.822;7.966;2023-02-12T06:02:38;22.57;;;21.37;;
18021;SDS011;9136;48.822;7.966;2023-02-12T06:05:26;24.10;;;22.90;;
18021;SDS011;9136;48.822;7.966;2023-02-12T06:08:14;21.97;;;20.90;;
18021;SDS011;9136;48.822;7.966;2023-02-12T06:11:03;20.63;;;19.70;;
18021;SDS011;9136;48.822;7.966;2023-02-12T06:13:54;20.63;;;19.60;;
18021;SDS011;9136;48.822;7.966;2023-02-12T06:16:43;21.20;;;20.10;;
18021;SDS011;9136;48.822;7.966;2023-02-12T06:19:32;23.53;;;22.23;;
18021;SDS011;9136;48.822;7.966;2023-02-12T06:22:20;20.70;;;19.60;;
18021;SDS011;9136;48.822;7.966;2023-02-12T06:25:08;21.43;;;20.13;;
18021;SDS011;9136;48.822;7.966;2023-02-12T06:27:56;20.47;;;19.47;;
18021;SDS011;9136;48.822;7.966;2023-02-12T06:30:45;22.73;;;21.37;;
18021;SDS011;9136;48.822;7.966;2023-02-12T06:33:33;18.80;;;17.80;;
18021;SDS011;9136;48.822;7.966;2023-02-12T06:36:21;23.10;;;22.00;;
18021;SDS011;9136;48.822;7.966;2023-02-12T06:39:09;23.80;;;22.43;;
18021;SDS011;9136;48.822;7.966;2023-02-12T06:41:58;20.33;;;19.07;;
18021;SDS011;9136;48.822;7.966;2023-02-12T06:44:46;22.97;;;21.77;;
18021;SDS011;9136;48.822;7.966;2023-02-12T06:47:35;22.17;;;21.07;;
18021;SDS011;9136;48.822;7.966;2023-02-12T06:50:23;22.33;;;21.23;;
18021;SDS011;9136;48.822;7.966;2023-02-12T06:53:11;19.87;;;18.97;;
18021;SDS011;9136;48.822;7.966;2023-02-12T06:55:59;21.17;;;20.17;;
18021;SDS011;9136;48.822;7.966;2023-02-12T06:58:51;20.67;;;19.63;;
18021;SDS011;9136;48.822;7.966;2023-02-12T07:01:40;24.50;;;23.13;;
18021;SDS011;9136;48.822;7.966;2023-02-12T07:04:29;21.47;;;20.43;;
18021;SDS011;9136;48.822;7.966;2023-02-12T07:07:17;20.33;;;19.30;;
18021;SDS011;9136;48.822;7.966;2023-02-12T07:10:06;22.20;;;20.77;;
18021;SDS011;9136;48.822;7.966;2023-02-12T07:12:54;21.67;;;20.47;;
18021;SDS011;9136;48.822;7.966;2023-02-12T07:15:42;21.40;;;20.30;;
18021;SDS011;9136;48.822;7.966;2023-02-12T07:18:30;19.77;;;18.67;;
18021;SDS011;9136;48.822;7.966;2023-02-12T07:21:19;20.03;;;19.03;;
18021;SDS011;9136;48.822;7.966;2023-02-12T07:24:08;23.00;;;21.43;;
18021;SDS011;9136;48.822;7.966;2023-02-12T07:26:57;26.33;;;24.53;;
18021;SDS011;9136;48.822;7.966;2023-02-12T07:29:44;21.07;;;20.07;;
18021;SDS011;9136;48.822;7.966;2023-02-12T07:32:33;22.13;;;21.03;;
18021;SDS011;9136;48.822;7.966;2023-02-12T07:35:21;21.83;;;20.83;;
18021;SDS011;9136;48.822;7.966;2023-02-12T07:38:14;21.07;;;20.00;;
18021;SDS011;9136;48.822;7.966;2023-02-12T07:41:06;25.33;;;24.03;;
18021;SDS011;9136;48.822;7.966;2023-02-12T07:43:55;19.80;;;18.90;;
18021;SDS011;9136;48.822;7.966;2023-02-12T07:46:45;22.23;;;20.77;;
18021;SDS011;9136;48.822;7.966;2023-02-12T07:49:35;21.40;;;20.37;;
18021;SDS011;9136;48.822;7.966;2023-02-12T07:52:22;21.43;;;20.33;;
18021;SDS011;9136;48.822;7.966;2023-02-12T07:55:12;20.23;;;19.27;;
18021;SDS011;9136;48.822;7.966;2023-02-12T07:58:00;21.40;;;20.30;;
18021;SDS011;9136;48.822;7.966;2023-02-12T08:00:48;24.17;;;23.00;;
18021;SDS011;9136;48.822;7.966;2023-02-12T08:03:37;21.47;;;19.83;;
18021;SDS011;9136;48.822;7.966;2023-02-12T08:06:26;21.07;;;20.13;;
18021;SDS011;9136;48.822;7.966;2023-02-12T08:09:16;21.97;;;20.97;;
18021;SDS011;9136;48.822;7.966;2023-02-12T08:12:08;23.43;;;22.17;;
18021;SDS011;9136;48.822;7.966;2023-02-12T08:14:56;23.70;;;22.43;;
18021;SDS011;9136;48.822;7.966;2023-02-12T08:17:44;19.30;;;18.40;;
18021;SDS011;9136;48.822;7.966;2023-02-12T08:20:32;21.77;;;20.37;;
18021;SDS011;9136;48.822;7.966;2023-02-12T08:23:20;22.93;;;21.83;;
18021;SDS011;9136;48.822;7.966;2023-02-12T08:26:09;20.13;;;19.23;;
18021;SDS011;9136;48.822;7.966;2023-02-12T08:29:01;23.40;;;22.13;;
18021;SDS011;9136;48.822;7.966;2023-02-12T08:31:54;19.53;;;18.63;;
18021;SDS011;9136;48.822;7.966;2023-02-12T08:34:42;25.00;;;23.60;;
18021;SDS011;9136;48.822;7.966;2023-02-12T08:37:30;28.17;;;26.53;;
18021;SDS011;9136;48.822;7.966;2023-02-12T08:40:18;21.40;;;20.40;;
18021;SDS011;9136;48.822;7.966;2023-02-12T08:43:06;21.83;;;20.20;;
18021;SDS011;9136;48.822;7.966;2023-02-12T08:45:59;23.40;;;21.87;;
18021;SDS011;9136;48.822;7.966;2023-02-12T08:48:47;22.53;;;21.13;;
18021;SDS011;9136;48.822;7.966;2023-02-12T08:51:40;21.17;;;20.07;;
18021;SDS011;9136;48.822;7.966;2023-02-12T08:54:31;21.23;;;20.13;;
18021;SDS011;9136;48.822;7.966;2023-02-12T08:57:19;18.00;;;17.10;;
18021;SDS011;9136;48.822;7.966;2023-02-12T09:00:10;20.37;;;19.37;;
18021;SDS011;9136;48.822;7.966;2023-02-12T09:03:00;24.93;;;23.47;;
18021;SDS011;9136;48.822;7.966;2023-02-12T09:05:48;21.83;;;20.27;;
18021;SDS011;9136;48.822;7.966;2023-02-12T09:08:37;19.20;;;18.23;;
18021;SDS011;9136;48.822;7.966;2023-02-12T09:11:27;19.67;;;18.77;;
18021;SDS011;9136;48.822;7.966;2023-02-12T09:14:17;21.50;;;20.40;;
18021;SDS011;9136;48.822;7.966;2023-02-12T09:17:08;21.10;;;19.93;;
18021;SDS011;9136;48.822;7.966;2023-02-12T09:19:58;19.57;;;18.53;;
18021;SDS011;9136;48.822;7.966;2023-02-12T09:22:49;18.67;;;17.67;;
18021;SDS011;9136;48.822;7.966;2023-02-12T09:25:39;18.13;;;17.07;;
18021;SDS011;9136;48.822;7.966;2023-02-12T09:28:28;17.77;;;16.90;;
18021;SDS011;9136;48.822;7.966;2023-02-12T09:31:17;20.83;;;19.43;;
18021;SDS011;9136;48.822;7.966;2023-02-12T09:34:08;16.03;;;15.23;;
18021;SDS011;9136;48.822;7.966;2023-02-12T09:36:58;19.43;;;18.33;;
18021;SDS011;9136;48.822;7.966;2023-02-12T09:39:46;18.90;;;17.90;;
18021;SDS011;9136;48.822;7.966;2023-02-12T09:42:37;16.53;;;15.73;;
18021;SDS011;9136;48.822;7.966;2023-02-12T09:45:43;18.97;;;18.07;;
18021;SDS011;9136;48.822;7.966;2023-02-12T09:48:41;19.63;;;18.53;;
18021;SDS011;9136;48.822;7.966;2023-02-12T09:51:41;20.53;;;19.53;;
18021;SDS011;9136;48.822;7.966;2023-02-12T09:54:36;17.87;;;17.07;;
18021;SDS011;9136;48.822;7.966;2023-02-12T09:57:26;18.40;;;17.50;;
18021;SDS011;9136;48.822;7.966;2023-02-12T10:00:20;18.73;;;17.73;;
18021;SDS011;9136;48.822;7.966;2023-02-12T10:03:13;19.27;;;18.30;;
18021;SDS011;9136;48.822;7.966;2023-02-12T10:06:03;20.23;;;18.80;;
18021;SDS011;9136;48.822;7.966;2023-02-12T10:09:09;19.90;;;19.00;;
18021;SDS011;9136;48.822;7.966;2023-02-12T10:12:16;18.07;;;17.17;;
18021;SDS011;9136;48.822;7.966;2023-02-12T10:15:12;15.93;;;15.23;;
18021;SDS011;9136;48.822;7.966;2023-02-12T10:18:24;17.10;;;16.30;;
18021;SDS011;9136;48.822;7.966;2023-02-12T10:21:31;18.17;;;17.27;;
18021;SDS011;9136;48.822;7.966;2023-02-12T10:24:34;15.87;;;15.17;;
18021;SDS011;9136;48.822;7.966;2023-02-12T10:27:38;18.63;;;17.83;;
18021;SDS011;9136;48.822;7.966;2023-02-12T10:30:34;17.67;;;16.77;;
18021;SDS011;9136;48.822;7.966;2023-02-12T10:33:29;17.53;;;16.73;;
18021;SDS011;9136;48.822;7.966;2023-02-12T10:36:28;17.70;;;16.70;;
18021;SDS011;9136;48.822;7.966;2023-02-12T10:39:23;17.30;;;16.50;;
18021;SDS011;9136;48.822;7.966;2023-02-12T10:42:16;18.23;;;17.33;;
18021;SDS011;9136;48.822;7.966;2023-02-12T10:45:13;15.60;;;14.90;;
18021;SDS011;9136;48.822;7.966;2023-02-12T10:48:04;16.30;;;15.60;;
18021;SDS011;9136;48.822;7.966;2023-02-12T10:50:58;17.73;;;16.93;;
18021;SDS011;9136;48.822;7.966;2023-02-12T10:53:57;15.60;;;14.90;;
18021;SDS011;9136;48.822;7.966;2023-02-12T10:57:20;18.13;;;17.33;;
18021;SDS011;9136;48.822;7.966;2023-02-12T11:00:21;19.67;;;18.77;;
18021;SDS011;9136;48.822;7.966;2023-02-12T11:03:19;16.63;;;15.90;;
18021;SDS011;9136;48.822;7.966;2023-02-12T11:06:12;17.40;;;16.40;;
18021;SDS011;9136;48.822;7.966;2023-02-12T11:09:01;17.67;;;16.83;;
18021;SDS011;9136;48.822;7.966;2023-02-12T11:11:49;14.97;;;14.23;;
18021;SDS011;9136;48.822;7.966;2023-02-12T11:14:37;16.03;;;15.33;;
18021;SDS011;9136;48.822;7.966;2023-02-12T11:17:32;15.07;;;14.37;;
18021;SDS011;9136;48.822;7.966;2023-02-12T11:20:23;14.57;;;13.87;;
18021;SDS011;9136;48.822;7.966;2023-02-12T11:23:23;15.97;;;15.13;;
18021;SDS011;9136;48.822;7.966;2023-02-12T11:26:23;13.27;;;12.67;;
18021;SDS011;9136;48.822;7.966;2023-02-12T11:29:16;13.97;;;13.37;;
18021;SDS011;9136;48.822;7.966;2023-02-12T11:32:06;15.80;;;15.00;;
18021;SDS011;9136;48.822;7.966;2023-02-12T11:35:05;14.27;;;13.53;;
18021;SDS011;9136;48.822;7.966;2023-02-12T11:37:57;16.30;;;15.53;;
18021;SDS011;9136;48.822;7.966;2023-02-12T11:40:47;15.77;;;15.00;;
18021;SDS011;9136;48.822;7.966;2023-02-12T11:43:35;15.23;;;14.23;;
18021;SDS011;9136;48.822;7.966;2023-02-12T11:46:25;15.37;;;14.57;;
18021;SDS011;9136;48.822;7.966;2023-02-12T11:49:17;16.13;;;15.33;;
18021;SDS011;9136;48.822;7.966;2023-02-12T11:52:17;15.73;;;15.03;;
18021;SDS011;9136;48.822;7.966;2023-02-12T11:55:17;17.63;;;16.73;;
18021;SDS011;9136;48.822;7.966;2023-02-12T11:58:13;16.23;;;15.53;;
18021;SDS011;9136;48.822;7.966;2023-02-12T12:01:04;15.83;;;14.93;;
18021;SDS011;9136;48.822;7.966;2023-02-12T12:03:58;14.07;;;13.23;;
18021;SDS011;9136;48.822;7.966;2023-02-12T12:06:51;15.33;;;14.53;;
18021;SDS011;9136;48.822;7.966;2023-02-12T12:09:47;15.83;;;14.93;;
18021;SDS011;9136;48.822;7.966;2023-02-12T12:12:42;15.93;;;14.93;;
18021;SDS011;9136;48.822;7.966;2023-02-12T12:15:35;15.60;;;14.73;;
18021;SDS011;9136;48.822;7.966;2023-02-12T12:18:44;15.10;;;14.33;;
18021;SDS011;9136;48.822;7.966;2023-02-12T12:21:56;15.10;;;14.37;;
18021;SDS011;9136;48.822;7.966;2023-02-12T12:24:52;16.17;;;15.37;;
18021;SDS011;9136;48.822;7.966;2023-02-12T12:27:50;16.40;;;15.17;;
18021;SDS011;9136;48.822;7.966;2023-02-12T12:30:59;17.13;;;16.33;;
18021;SDS011;9136;48.822;7.966;2023-02-12T12:33:54;15.07;;;14.17;;
18021;SDS011;9136;48.822;7.966;2023-02-12T12:36:59;16.20;;;15.40;;
18021;SDS011;9136;48.822;7.966;2023-02-12T12:40:21;15.10;;;14.30;;
18021;SDS011;9136;48.822;7.966;2023-02-12T12:43:21;16.23;;;15.23;;
18021;SDS011;9136;48.822;7.966;2023-02-12T12:52:55;16.23;;;15.30;;
18021;SDS011;9136;48.822;7.966;2023-02-12T12:56:06;15.27;;;14.57;;
18021;SDS011;9136;48.822;7.966;2023-02-12T12:59:14;16.13;;;15.33;;
18021;SDS011;9136;48.822;7.966;2023-02-12T13:02:34;14.67;;;13.90;;
18021;SDS011;9136;48.822;7.966;2023-02-12T13:05:53;15.00;;;14.23;;
18021;SDS011;9136;48.822;7.966;2023-02-12T13:08:58;16.80;;;15.97;;
18021;SDS011;9136;48.822;7.966;2023-02-12T13:12:04;18.60;;;17.70;;
18021;SDS011;9136;48.822;7.966;2023-02-12T13:15:02;16.63;;;15.80;;
18021;SDS011;9136;48.822;7.966;2023-02-12T13:18:02;16.47;;;15.47;;
18021;SDS011;9136;48.822;7.966;2023-02-12T13:21:02;16.20;;;15.30;;
18021;SDS011;9136;48.822;7.966;2023-02-12T13:23:57;15.07;;;14.27;;
18021;SDS011;9136;48.822;7.966;2023-02-12T13:26:51;15.23;;;14.30;;
18021;SDS011;9136;48.822;7.966;2023-02-12T13:29:45;14.70;;;14.00;;
18021;SDS011;9136;48.822;7.966;2023-02-12T13:32:37;17.63;;;16.80;;
18021;SDS011;9136;48.822;7.966;2023-02-12T13:35:28;16.00;;;15.10;;
18021;SDS011;9136;48.822;7.966;2023-02-12T13:38:19;18.17;;;17.13;;
18021;SDS011;9136;48.822;7.966;2023-02-12T13:41:12;13.70;;;13.10;;
18021;SDS011;9136;48.822;7.966;2023-02-12T13:44:04;15.67;;;14.97;;
18021;SDS011;9136;48.822;7.966;2023-02-12T13:47:05;17.27;;;16.37;;
18021;SDS011;9136;48.822;7.966;2023-02-12T13:50:04;15.10;;;14.40;;
18021;SDS011;9136;48.822;7.966;2023-02-12T13:53:06;15.00;;;14.10;;
18021;SDS011;9136;48.822;7.966;2023-02-12T13:56:05;16.67;;;15.53;;
18021;SDS011;9136;48.822;7.966;2023-02-12T13:58:57;15.30;;;14.60;;
18021;SDS011;9136;48.822;7.966;2023-02-12T14:01:46;16.90;;;15.90;;
18021;SDS011;9136;48.822;7.966;2023-02-12T14:04:37;15.90;;;15.20;;
18021;SDS011;9136;48.822;7.966;2023-02-12T14:07:39;18.27;;;17.37;;
18021;SDS011;9136;48.822;7.966;2023-02-12T14:10:29;16.73;;;15.90;;
18021;SDS011;9136;48.822;7.966;2023-02-12T14:13:21;18.53;;;17.30;;
18021;SDS011;9136;48.822;7.966;2023-02-12T14:16:22;16.20;;;15.23;;
18021;SDS011;9136;48.822;7.966;2023-02-12T14:23:02;19.17;;;17.60;;
18021;SDS011;9136;48.822;7.966;2023-02-12T14:26:14;15.20;;;14.50;;
18021;SDS011;9136;48.822;7.966;2023-02-12T14:29:03;16.70;;;15.87;;
18021;SDS011;9136;48.822;7.966;2023-02-12T14:32:08;14.10;;;13.43;;
18021;SDS011;9136;48.822;7.966;2023-02-12T14:35:36;17.60;;;16.80;;
18021;SDS011;9136;48.822;7.966;2023-02-12T14:41:50;18.53;;;17.53;;
18021;SDS011;9136;48.822;7.966;2023-02-12T14:44:42;17.10;;;16.17;;
18021;SDS011;9136;48.822;7.966;2023-02-12T14:50:53;18.47;;;17.67;;
18021;SDS011;9136;48.822;7.966;2023-02-12T14:53:41;17.13;;;16.17;;
18021;SDS011;9136;48.822;7.966;2023-02-12T14:56:35;16.87;;;16.00;;
18021;SDS011;9136;48.822;7.966;2023-02-12T14:59:40;16.77;;;15.97;;
18021;SDS011;9136;48.822;7.966;2023-02-12T15:02:31;16.47;;;15.67;;
18021;SDS011;9136;48.822;7.966;2023-02-12T15:05:22;17.17;;;16.30;;
18021;SDS011;9136;48.822;7.966;2023-02-12T15:08:17;18.97;;;18.13;;
18021;SDS011;9136;48.822;7.966;2023-02-12T15:11:22;16.10;;;15.40;;
18021;SDS011;9136;48.822;7.966;2023-02-12T15:14:17;18.77;;;17.67;;
18021;SDS011;9136;48.822;7.966;2023-02-12T15:17:09;17.23;;;16.40;;
18021;SDS011;9136;48.822;7.966;2023-02-12T15:20:03;17.20;;;16.30;;
18021;SDS011;9136;48.822;7.966;2023-02-12T15:22:55;16.93;;;16.20;;
18021;SDS011;9136;48.822;7.966;2023-02-12T15:25:44;16.27;;;15.47;;
18021;SDS011;9136;48.822;7.966;2023-02-12T15:28:32;16.60;;;15.57;;
18021;SDS011;9136;48.822;7.966;2023-02-12T15:31:25;16.37;;;15.57;;
18021;SDS011;9136;48.822;7.966;2023-02-12T15:34:15;15.93;;;15.23;;
18021;SDS011;9136;48.822;7.966;2023-02-12T15:37:07;16.80;;;16.00;;
18021;SDS011;9136;48.822;7.966;2023-02-12T15:39:56;16.80;;;15.87;;
18021;SDS011;9136;48.822;7.966;2023-02-12T15:42:53;16.70;;;15.90;;
18021;SDS011;9136;48.822;7.966;2023-02-12T15:45:48;16.77;;;15.97;;
18021;SDS011;9136;48.822;7.966;2023-02-12T15:48:37;15.57;;;14.77;;
18021;SDS011;9136;48.822;7.966;2023-02-12T15:51:27;18.30;;;17.40;;
18021;SDS011;9136;48.822;7.966;2023-02-12T15:54:19;16.00;;;15.20;;
18021;SDS011;9136;48.822;7.966;2023-02-12T15:57:09;16.90;;;16.20;;
18021;SDS011;9136;48.822;7.966;2023-02-12T16:00:02;17.30;;;16.43;;
18021;SDS011;9136;48.822;7.966;2023-02-12T16:02:52;16.83;;;15.93;;
18021;SDS011;9136;48.822;7.966;2023-02-12T16:05:40;16.40;;;15.60;;
18021;SDS011;9136;48.822;7.966;2023-02-12T16:08:29;15.63;;;14.93;;
18021;SDS011;9136;48.822;7.966;2023-02-12T16:11:20;17.73;;;16.87;;
18021;SDS011;9136;48.822;7.966;2023-02-12T16:14:17;18.50;;;17.60;;
18021;SDS011;9136;48.822;7.966;2023-02-12T16:17:19;18.20;;;17.33;;
18021;SDS011;9136;48.822;7.966;2023-02-12T16:20:19;15.93;;;15.13;;
18021;SDS011;9136;48.822;7.966;2023-02-12T16:23:10;16.87;;;16.13;;
18021;SDS011;9136;48.822;7.966;2023-02-12T16:25:59;16.17;;;15.47;;
18021;SDS011;9136;48.822;7.966;2023-02-12T16:28:49;18.57;;;17.37;;
18021;SDS011;9136;48.822;7.966;2023-02-12T16:31:39;15.07;;;14.37;;
18021;SDS011;9136;48.822;7.966;2023-02-12T16:34:41;16.97;;;15.97;;
18021;SDS011;9136;48.822;7.966;2023-02-12T16:37:43;17.23;;;16.40;;
18021;SDS011;9136;48.822;7.966;2023-02-12T16:40:34;19.53;;;18.63;;
18021;SDS011;9136;48.822;7.966;2023-02-12T16:43:25;22.00;;;20.90;;
18021;SDS011;9136;48.822;7.966;2023-02-12T16:46:13;16.20;;;15.50;;
18021;SDS011;9136;48.822;7.966;2023-02-12T16:49:04;17.40;;;16.60;;
18021;SDS011;9136;48.822;7.966;2023-02-12T16:51:54;17.47;;;16.60;;
18021;SDS011;9136;48.822;7.966;2023-02-12T16:55:09;18.43;;;17.50;;
18021;SDS011;9136;48.822;7.966;2023-02-12T16:58:00;18.93;;;18.07;;
18021;SDS011;9136;48.822;7.966;2023-02-12T17:00:48;17.17;;;16.40;;
18021;SDS011;9136;48.822;7.966;2023-02-12T17:03:36;16.90;;;16.20;;
18021;SDS011;9136;48.822;7.966;2023-02-12T17:06:26;16.00;;;15.20;;
18021;SDS011;9136;48.822;7.966;2023-02-12T17:09:17;16.90;;;16.13;;
18021;SDS011;9136;48.822;7.966;2023-02-12T17:12:05;16.60;;;15.90;;
18021;SDS011;9136;48.822;7.966;2023-02-12T17:14:53;17.27;;;16.47;;
18021;SDS011;9136;48.822;7.966;2023-02-12T17:17:41;16.97;;;16.07;;
18021;SDS011;9136;48.822;7.966;2023-02-12T17:20:29;17.17;;;16.37;;
18021;SDS011;9136;48.822;7.966;2023-02-12T17:23:16;16.27;;;15.57;;
18021;SDS011;9136;48.822;7.966;2023-02-12T17:26:06;16.87;;;16.07;;